createdAt,value
2023-01-01T00:01:29.824Z,30.03
2023-01-01T00:03:57.814Z,26.10
2023-01-01T00:06:24.970Z,23.57
2023-01-01T00:09:12.391Z,19.23
2023-01-01T00:11:39.597Z,17.13
2023-01-01T00:14:12.037Z,14.27
2023-01-01T00:16:40.100Z,14.07
2023-01-01T00:19:07.457Z,13.17
2023-01-01T00:21:34.798Z,9.97
2023-01-01T00:24:01.945Z,10.13
2023-01-01T00:26:34.513Z,10.30
2023-01-01T00:29:02.707Z,9.90
2023-01-01T00:31:29.894Z,9.10
2023-01-01T00:33:57.272Z,8.87
2023-01-01T00:36:25.503Z,8.17
2023-01-01T00:38:52.869Z,8.33
2023-01-01T00:41:20.358Z,8.33
2023-01-01T00:43:47.716Z,8.50
2023-01-01T00:46:15.354Z,8.17
2023-01-01T00:48:42.748Z,9.10
2023-01-01T00:51:10.110Z,8.17
2023-01-01T00:53:37.384Z,8.90
2023-01-01T00:56:05.289Z,8.40
2023-01-01T00:58:32.595Z,8.27
2023-01-01T01:01:00.406Z,8.10
2023-01-01T01:03:30.668Z,8.57
2023-01-01T01:06:12.678Z,7.63
2023-01-01T01:08:41.163Z,7.77
2023-01-01T01:11:19.631Z,8.53
2023-01-01T01:13:47.726Z,7.77
2023-01-01T01:16:14.873Z,7.57
2023-01-01T01:18:42.112Z,7.70
2023-01-01T01:21:09.349Z,8.10
2023-01-01T01:23:36.833Z,7.67
2023-01-01T01:26:11.127Z,8.20
2023-01-01T01:28:40.389Z,7.70
2023-01-01T01:31:11.515Z,7.53
2023-01-01T01:33:38.729Z,7.90
2023-01-01T01:36:06.444Z,7.80
2023-01-01T01:38:33.714Z,7.90
2023-01-01T01:41:00.885Z,7.73
2023-01-01T01:43:34.191Z,8.37
2023-01-01T01:46:11.279Z,7.57
2023-01-01T01:48:39.818Z,7.23
2023-01-01T01:51:07.662Z,7.60
2023-01-01T01:53:37.698Z,7.30
2023-01-01T01:56:06.663Z,7.47
2023-01-01T01:58:34.051Z,7.27
2023-01-01T02:01:01.671Z,6.87
2023-01-01T02:03:28.932Z,7.67
2023-01-01T02:05:56.135Z,6.90
2023-01-01T02:08:23.941Z,7.33
2023-01-01T02:10:51.126Z,6.43
2023-01-01T02:13:18.352Z,6.57
2023-01-01T02:15:52.568Z,7.17
2023-01-01T02:18:28.662Z,6.43
2023-01-01T02:20:55.752Z,6.33
2023-01-01T02:23:39.479Z,6.77
2023-01-01T02:26:18.990Z,6.53
2023-01-01T02:29:02.824Z,6.20
2023-01-01T02:31:34.974Z,5.43
2023-01-01T02:34:04.303Z,5.77
2023-01-01T02:36:33.461Z,5.80
2023-01-01T02:39:01.511Z,5.20
2023-01-01T02:41:31.291Z,5.43
2023-01-01T02:46:24.680Z,4.60
2023-01-01T02:48:52.709Z,4.80
2023-01-01T02:51:28.946Z,4.63
2023-01-01T02:54:14.749Z,4.60
2023-01-01T02:57:00.702Z,4.13
2023-01-01T03:00:01.571Z,3.90
2023-01-01T03:02:28.790Z,4.03
2023-01-01T03:05:14.444Z,4.10
2023-01-01T03:08:00.371Z,4.10
2023-01-01T03:10:33.984Z,3.87
2023-01-01T03:13:01.089Z,3.40
2023-01-01T03:15:37.144Z,2.80
2023-01-01T03:18:04.336Z,3.00
2023-01-01T03:20:33.647Z,3.00
2023-01-01T03:23:04.718Z,2.80
2023-01-01T03:25:36.945Z,2.63
2023-01-01T03:28:15.397Z,2.13
2023-01-01T03:30:44.879Z,2.10
2023-01-01T03:33:22.520Z,2.70
2023-01-01T03:35:51.277Z,2.50
2023-01-01T03:38:22.423Z,2.50
2023-01-01T03:40:52.234Z,2.10
2023-01-01T03:43:42.766Z,2.50
2023-01-01T03:46:11.692Z,2.20
2023-01-01T03:49:02.721Z,2.20
2023-01-01T03:51:49.241Z,2.00
2023-01-01T03:54:19.480Z,2.00
2023-01-01T03:56:53.517Z,2.17
2023-01-01T03:59:31.311Z,2.17
2023-01-01T04:01:59.210Z,2.03
2023-01-01T04:04:27.325Z,2.00
2023-01-01T04:06:55.046Z,2.20
2023-01-01T04:09:26.319Z,2.10
2023-01-01T04:12:06.019Z,2.03
2023-01-01T04:14:33.317Z,1.80
2023-01-01T04:17:00.821Z,1.87
2023-01-01T04:19:28.098Z,1.83
2023-01-01T04:21:55.570Z,2.20
2023-01-01T04:24:23.757Z,1.90
2023-01-01T04:26:51.945Z,1.80
2023-01-01T04:29:19.211Z,1.50
2023-01-01T04:31:46.698Z,1.90
2023-01-01T04:34:14.022Z,1.70
2023-01-01T04:36:41.202Z,2.00
2023-01-01T04:39:08.362Z,2.10
2023-01-01T04:41:35.640Z,1.97
2023-01-01T04:44:02.955Z,2.00
2023-01-01T04:46:30.112Z,2.17
2023-01-01T04:48:57.275Z,2.00
2023-01-01T04:51:24.465Z,2.20
2023-01-01T04:53:51.667Z,2.20
2023-01-01T04:56:19.845Z,1.90
2023-01-01T04:58:47.738Z,2.20
2023-01-01T05:01:16.174Z,2.00
2023-01-01T05:03:43.390Z,2.13
2023-01-01T05:06:11.700Z,1.97
2023-01-01T05:08:39.702Z,2.07
2023-01-01T05:11:08.100Z,2.10
2023-01-01T05:13:36.140Z,1.80
2023-01-01T05:16:04.432Z,2.00
2023-01-01T05:18:32.101Z,2.00
2023-01-01T05:21:07.268Z,1.90
2023-01-01T05:23:34.953Z,1.90
2023-01-01T05:26:08.686Z,1.90
2023-01-01T05:28:35.833Z,1.77
2023-01-01T05:31:06.077Z,1.90
2023-01-01T05:33:33.304Z,1.90
2023-01-01T05:36:00.592Z,2.20
2023-01-01T05:38:27.810Z,1.60
2023-01-01T05:40:55.062Z,1.90
2023-01-01T05:43:22.278Z,1.87
2023-01-01T05:45:49.464Z,1.67
2023-01-01T05:48:16.616Z,1.60
2023-01-01T05:50:43.762Z,2.00
2023-01-01T05:53:10.928Z,1.50
2023-01-01T05:55:38.090Z,1.60
2023-01-01T05:58:05.256Z,1.80
2023-01-01T06:00:32.382Z,1.80
2023-01-01T06:02:59.655Z,1.60
2023-01-01T06:05:26.873Z,1.60
2023-01-01T06:07:54.051Z,1.30
2023-01-01T06:10:21.199Z,1.60
2023-01-01T06:12:48.376Z,1.57
2023-01-01T06:15:15.533Z,1.60
2023-01-01T06:17:42.677Z,1.83
2023-01-01T06:20:10.081Z,1.70
2023-01-01T06:22:37.771Z,1.80
2023-01-01T06:25:05.051Z,1.73
2023-01-01T06:27:32.202Z,1.83
2023-01-01T06:29:59.406Z,2.20
2023-01-01T06:32:26.528Z,2.03
2023-01-01T06:34:53.664Z,1.90
2023-01-01T06:37:20.832Z,2.00
2023-01-01T06:39:48.116Z,2.20
2023-01-01T06:42:15.907Z,2.57
2023-01-01T06:44:43.208Z,2.20
2023-01-01T06:47:10.354Z,2.20
2023-01-01T06:49:37.485Z,2.20
2023-01-01T06:52:04.606Z,2.00
2023-01-01T06:54:31.816Z,2.07
2023-01-01T06:56:58.968Z,2.40
2023-01-01T06:59:26.104Z,2.13
2023-01-01T07:01:53.377Z,2.10
2023-01-01T07:04:20.575Z,2.17
2023-01-01T07:06:47.747Z,1.90
2023-01-01T07:09:14.889Z,2.20
2023-01-01T07:11:42.020Z,2.20
2023-01-01T07:14:09.191Z,1.80
2023-01-01T07:16:36.401Z,2.00
2023-01-01T07:19:03.690Z,2.00
2023-01-01T07:21:38.014Z,1.90
2023-01-01T07:24:06.022Z,1.80
2023-01-01T07:26:34.158Z,1.70
2023-01-01T07:29:07.892Z,1.63
2023-01-01T07:31:39.266Z,1.60
2023-01-01T07:34:07.174Z,1.50
2023-01-01T07:36:34.870Z,1.67
2023-01-01T07:39:02.061Z,2.00
2023-01-01T07:41:29.265Z,1.90
2023-01-01T07:43:56.417Z,1.40
2023-01-01T07:46:23.727Z,1.60
2023-01-01T07:48:50.958Z,1.70
2023-01-01T07:51:18.087Z,1.50
2023-01-01T07:53:45.287Z,1.50
2023-01-01T07:56:12.570Z,1.47
2023-01-01T07:58:40.670Z,1.53
2023-01-01T08:01:10.285Z,1.57
2023-01-01T08:03:37.560Z,1.80
2023-01-01T08:06:22.988Z,1.50
2023-01-01T08:08:50.209Z,1.47
2023-01-01T08:11:17.420Z,1.50
2023-01-01T08:13:44.543Z,1.60
2023-01-01T08:16:11.723Z,1.37
2023-01-01T08:18:39.024Z,1.60
2023-01-01T08:21:06.316Z,1.30
2023-01-01T08:23:33.515Z,1.60
2023-01-01T08:26:03.593Z,1.57
2023-01-01T08:28:31.330Z,1.47
2023-01-01T08:30:59.280Z,1.40
2023-01-01T08:33:26.582Z,1.43
2023-01-01T08:35:54.594Z,1.73
2023-01-01T08:38:22.206Z,1.93
2023-01-01T08:40:49.396Z,1.50
2023-01-01T08:43:16.527Z,1.60
2023-01-01T08:45:43.799Z,1.50
2023-01-01T08:48:11.282Z,1.70
2023-01-01T08:50:38.445Z,1.70
2023-01-01T08:53:05.564Z,1.60
2023-01-01T08:55:32.731Z,1.70
2023-01-01T08:57:59.886Z,1.60
2023-01-01T09:00:27.165Z,1.60
2023-01-01T09:02:55.162Z,1.53
2023-01-01T09:05:22.441Z,1.80
2023-01-01T09:07:49.565Z,1.70
2023-01-01T09:10:16.720Z,1.60
2023-01-01T09:12:44.017Z,1.57
2023-01-01T09:15:16.041Z,1.40
2023-01-01T09:17:43.258Z,1.80
2023-01-01T09:20:10.540Z,2.00
2023-01-01T09:22:37.697Z,1.83
2023-01-01T09:25:05.049Z,2.10
2023-01-01T09:27:32.186Z,2.03
2023-01-01T09:30:00.191Z,2.07
2023-01-01T09:32:27.422Z,2.10
2023-01-01T09:34:54.603Z,2.20
2023-01-01T09:37:21.759Z,2.30
2023-01-01T09:39:49.042Z,1.90
2023-01-01T09:42:31.253Z,1.80
2023-01-01T09:45:22.493Z,1.90
2023-01-01T09:47:55.361Z,1.80
2023-01-01T09:50:24.449Z,1.53
2023-01-01T09:52:59.299Z,1.60
2023-01-01T09:55:31.305Z,1.67
2023-01-01T09:57:58.753Z,1.67
2023-01-01T10:00:26.215Z,1.70
2023-01-01T10:03:04.070Z,1.57
2023-01-01T10:05:57.473Z,1.60
2023-01-01T10:08:44.917Z,1.73
2023-01-01T10:11:18.958Z,1.70
2023-01-01T10:13:46.804Z,1.80
2023-01-01T10:16:32.669Z,1.40
2023-01-01T10:19:02.209Z,1.40
2023-01-01T10:21:46.545Z,1.70
2023-01-01T10:24:25.755Z,1.70
2023-01-01T10:26:54.391Z,1.40
2023-01-01T10:29:30.627Z,1.10
2023-01-01T10:31:58.553Z,1.50
2023-01-01T10:34:28.033Z,1.27
2023-01-01T10:36:56.768Z,1.50
2023-01-01T10:39:24.576Z,1.50
2023-01-01T10:41:52.230Z,1.37
2023-01-01T10:44:24.498Z,1.30
2023-01-01T10:46:54.351Z,1.50
2023-01-01T10:49:21.512Z,1.70
2023-01-01T10:51:49.992Z,1.77
2023-01-01T10:54:19.981Z,1.70
2023-01-01T10:56:47.492Z,1.50
2023-01-01T10:59:35.358Z,1.20
2023-01-01T11:02:18.058Z,1.30
2023-01-01T11:04:45.613Z,1.60
2023-01-01T11:07:22.116Z,1.23
2023-01-01T11:10:02.609Z,1.27
2023-01-01T11:13:03.677Z,1.63
2023-01-01T11:15:31.815Z,1.13
2023-01-01T11:18:06.429Z,1.30
2023-01-01T11:20:34.020Z,1.37
2023-01-01T11:23:17.856Z,1.10
2023-01-01T11:25:57.885Z,1.00
2023-01-01T11:28:26.059Z,1.10
2023-01-01T11:31:00.564Z,1.20
2023-01-01T11:33:28.685Z,1.20
2023-01-01T11:35:56.283Z,1.40
2023-01-01T11:38:29.570Z,1.67
2023-01-01T11:41:02.216Z,1.80
2023-01-01T11:43:38.426Z,1.70
2023-01-01T11:46:08.357Z,1.50
2023-01-01T11:48:35.719Z,1.50
2023-01-01T11:51:05.429Z,1.50
2023-01-01T11:53:33.873Z,1.43
2023-01-01T11:56:01.351Z,1.50
2023-01-01T11:58:37.559Z,1.20
2023-01-01T12:01:28.122Z,1.47
2023-01-01T12:04:01.153Z,1.40
2023-01-01T12:06:33.584Z,1.77
2023-01-01T12:09:08.528Z,1.83
2023-01-01T12:11:41.660Z,1.50
2023-01-01T12:14:32.957Z,1.50
2023-01-01T12:17:03.361Z,1.33
2023-01-01T12:19:33.700Z,1.40
2023-01-01T12:22:01.497Z,1.50
2023-01-01T12:24:33.457Z,1.57
2023-01-01T12:27:19.151Z,1.40
2023-01-01T12:29:52.414Z,1.20
2023-01-01T12:32:31.516Z,1.30
2023-01-01T12:34:58.695Z,1.40
2023-01-01T12:37:55.092Z,1.20
2023-01-01T12:40:34.373Z,1.17
2023-01-01T12:43:06.393Z,1.13
2023-01-01T12:45:33.528Z,1.10
2023-01-01T12:48:03.644Z,1.20
2023-01-01T12:50:38.271Z,1.00
2023-01-01T12:53:08.563Z,2.17
2023-01-01T12:55:50.804Z,0.90
2023-01-01T12:58:27.044Z,1.10
2023-01-01T13:00:59.867Z,0.90
2023-01-01T13:03:30.161Z,1.10
2023-01-01T13:05:58.344Z,0.80
2023-01-01T13:08:25.541Z,1.00
2023-01-01T13:10:54.149Z,1.07
2023-01-01T13:13:21.465Z,1.20
2023-01-01T13:15:50.096Z,1.10
2023-01-01T13:18:20.415Z,0.90
2023-01-01T13:21:08.753Z,1.20
2023-01-01T13:23:36.003Z,1.40
2023-01-01T13:26:35.896Z,1.10
2023-01-01T13:29:05.369Z,1.10
2023-01-01T13:31:39.186Z,1.30
2023-01-01T13:34:25.230Z,1.30
2023-01-01T13:36:52.390Z,1.10
2023-01-01T13:39:38.244Z,1.30
2023-01-01T13:42:25.458Z,1.27
2023-01-01T13:44:53.623Z,1.20
2023-01-01T13:47:33.272Z,1.50
2023-01-01T13:50:13.826Z,1.47
2023-01-01T13:53:04.097Z,1.60
2023-01-01T13:55:50.183Z,1.60
2023-01-01T13:58:29.542Z,1.27
2023-01-01T14:00:59.501Z,1.20
2023-01-01T14:03:28.060Z,1.60
2023-01-01T14:05:55.197Z,1.50
2023-01-01T14:08:32.522Z,1.30
2023-01-01T14:11:03.191Z,1.00
2023-01-01T14:13:32.588Z,1.20
2023-01-01T14:16:03.927Z,1.17
2023-01-01T14:18:40.852Z,1.00
2023-01-01T14:21:12.763Z,0.73
2023-01-01T14:23:41.099Z,1.30
2023-01-01T14:26:11.360Z,1.10
2023-01-01T14:28:38.952Z,1.10
2023-01-01T14:31:11.326Z,0.83
2023-01-01T14:33:39.453Z,1.00
2023-01-01T14:36:07.752Z,1.80
2023-01-01T14:38:36.285Z,1.13
2023-01-01T14:41:13.381Z,0.80
2023-01-01T14:43:42.026Z,0.90
2023-01-01T14:46:14.391Z,0.80
2023-01-01T14:48:49.033Z,0.60
2023-01-01T14:51:17.557Z,0.97
2023-01-01T14:53:45.935Z,0.83
2023-01-01T14:56:22.303Z,0.80
2023-01-01T14:58:49.589Z,0.80
2023-01-01T15:01:17.651Z,0.97
2023-01-01T15:03:58.488Z,1.03
2023-01-01T15:06:25.954Z,1.00
2023-01-01T15:08:53.876Z,1.10
2023-01-01T15:11:28.259Z,1.20
2023-01-01T15:14:05.070Z,1.00
2023-01-01T15:16:39.916Z,1.00
2023-01-01T15:19:18.069Z,1.10
2023-01-01T15:21:45.642Z,1.20
2023-01-01T15:24:14.656Z,1.20
2023-01-01T15:26:42.154Z,1.13
2023-01-01T15:29:10.601Z,1.30
2023-01-01T15:32:04.220Z,1.27
2023-01-01T15:34:32.611Z,1.20
2023-01-01T15:37:13.388Z,1.13
2023-01-01T15:39:52.174Z,1.20
2023-01-01T15:42:38.915Z,1.50
2023-01-01T15:45:15.240Z,1.30
2023-01-01T15:47:44.132Z,1.40
2023-01-01T15:50:21.177Z,1.40
2023-01-01T15:52:55.172Z,1.60
2023-01-01T15:55:23.025Z,1.40
2023-01-01T15:57:50.889Z,1.40
2023-01-01T16:00:29.265Z,1.40
2023-01-01T16:02:59.423Z,1.60
2023-01-01T16:05:27.321Z,1.60
2023-01-01T16:07:59.029Z,1.50
2023-01-01T16:10:26.282Z,1.80
2023-01-01T16:12:53.472Z,1.77
2023-01-01T16:15:20.619Z,2.00
2023-01-01T16:17:47.767Z,2.00
2023-01-01T16:20:16.666Z,2.03
2023-01-01T16:22:44.042Z,2.03
2023-01-01T16:25:14.408Z,1.90
2023-01-01T16:27:41.694Z,1.87
2023-01-01T16:30:09.139Z,2.20
2023-01-01T16:32:36.370Z,1.90
2023-01-01T16:35:09.871Z,1.50
2023-01-01T16:37:39.298Z,1.70
2023-01-01T16:40:09.918Z,1.50
2023-01-01T16:42:37.083Z,1.60
2023-01-01T16:45:04.374Z,1.60
2023-01-01T16:47:31.498Z,1.43
2023-01-01T16:49:58.627Z,1.50
2023-01-01T16:52:29.961Z,1.47
2023-01-01T16:55:00.572Z,1.50
2023-01-01T16:57:27.708Z,1.83
2023-01-01T16:59:55.095Z,1.70
2023-01-01T17:02:22.399Z,1.67
2023-01-01T17:04:49.634Z,1.50
2023-01-01T17:07:16.764Z,2.00
2023-01-01T17:09:43.933Z,2.10
2023-01-01T17:12:11.061Z,2.10
2023-01-01T17:14:38.238Z,2.00
2023-01-01T17:17:05.394Z,2.07
2023-01-01T17:19:32.606Z,2.00
2023-01-01T17:21:59.958Z,1.87
2023-01-01T17:24:27.121Z,2.00
2023-01-01T17:26:55.332Z,2.10
2023-01-01T17:29:22.830Z,2.00
2023-01-01T17:31:50.198Z,2.00
2023-01-01T17:34:17.370Z,2.00
2023-01-01T17:36:45.316Z,2.37
2023-01-01T17:39:13.579Z,2.20
2023-01-01T17:41:41.061Z,2.20
2023-01-01T17:44:08.641Z,1.93
2023-01-01T17:46:35.860Z,2.10
2023-01-01T17:49:03.670Z,2.30
2023-01-01T17:51:30.922Z,2.27
2023-01-01T17:53:58.362Z,2.60
2023-01-01T17:56:25.618Z,2.40
2023-01-01T17:58:53.660Z,2.30
2023-01-01T18:01:24.041Z,2.70
2023-01-01T18:03:53.286Z,2.53
2023-01-01T18:06:20.830Z,2.50
2023-01-01T18:08:48.439Z,2.10
2023-01-01T18:11:16.770Z,2.10
2023-01-01T18:13:43.945Z,2.30
2023-01-01T18:16:11.345Z,2.30
2023-01-01T18:18:40.469Z,2.63
2023-01-01T18:21:19.492Z,2.67
2023-01-01T18:23:47.050Z,2.67
2023-01-01T18:26:14.313Z,2.40
2023-01-01T18:28:41.692Z,2.30
2023-01-01T18:31:10.287Z,2.47
2023-01-01T18:33:37.740Z,2.30
2023-01-01T18:36:05.968Z,2.40
2023-01-01T18:38:33.685Z,2.30
2023-01-01T18:41:19.974Z,2.50
2023-01-01T18:43:47.141Z,2.13
2023-01-01T18:46:14.327Z,2.33
2023-01-01T18:48:42.741Z,2.60
2023-01-01T18:51:15.051Z,2.90
2023-01-01T18:53:42.306Z,2.60
2023-01-01T18:56:13.749Z,2.53
2023-01-01T18:58:42.865Z,2.67
2023-01-01T19:01:14.644Z,3.00
2023-01-01T19:03:42.103Z,2.80
2023-01-01T19:06:29.465Z,3.03
2023-01-01T19:09:05.767Z,3.30
2023-01-01T19:11:39.447Z,5.20
2023-01-01T19:14:14.272Z,3.20
2023-01-01T19:16:41.614Z,3.00
2023-01-01T19:19:20.030Z,3.10
2023-01-01T19:21:51.569Z,3.30
2023-01-01T19:24:26.962Z,3.53
2023-01-01T19:26:57.061Z,3.10
2023-01-01T19:29:25.292Z,5.63
2023-01-01T19:31:53.668Z,2.97
2023-01-01T19:34:21.358Z,3.53
2023-01-01T19:36:48.522Z,3.20
2023-01-01T19:39:16.233Z,3.37
2023-01-01T19:41:43.781Z,3.53
2023-01-01T19:44:11.279Z,3.70
2023-01-01T19:46:38.515Z,3.97
2023-01-01T19:49:05.690Z,4.53
2023-01-01T19:51:32.831Z,4.33
2023-01-01T19:54:00.042Z,4.07
2023-01-01T19:56:27.237Z,4.17
2023-01-01T19:58:54.389Z,4.20
2023-01-01T20:01:21.659Z,5.00
2023-01-01T20:03:54.801Z,4.70
2023-01-01T20:06:22.827Z,4.50
2023-01-01T20:08:50.003Z,4.37
2023-01-01T20:11:17.388Z,4.23
2023-01-01T20:13:44.559Z,4.60
2023-01-01T20:16:11.824Z,4.90
2023-01-01T20:18:39.236Z,5.20
2023-01-01T20:21:26.786Z,4.50
2023-01-01T20:23:54.482Z,4.40
2023-01-01T20:26:23.525Z,5.17
2023-01-01T20:29:09.427Z,5.20
2023-01-01T20:31:36.826Z,5.10
2023-01-01T20:34:04.263Z,4.53
2023-01-01T20:36:50.114Z,4.30
2023-01-01T20:39:17.333Z,4.50
2023-01-01T20:41:44.448Z,4.27
2023-01-01T20:44:11.721Z,4.40
2023-01-01T20:46:39.088Z,4.23
2023-01-01T20:49:06.612Z,4.70
2023-01-01T20:51:34.213Z,5.03
2023-01-01T20:54:01.387Z,5.07
2023-01-01T20:56:28.525Z,4.93
2023-01-01T20:59:00.407Z,5.17
2023-01-01T21:01:29.648Z,5.17
2023-01-01T21:03:56.887Z,4.70
2023-01-01T21:06:24.857Z,5.20
2023-01-01T21:08:52.259Z,4.77
2023-01-01T21:11:19.444Z,5.22
2023-01-01T21:13:46.852Z,5.00
2023-01-01T21:16:16.882Z,4.70
2023-01-01T21:18:44.099Z,3.70
2023-01-01T21:21:19.251Z,4.60
2023-01-01T21:23:46.460Z,4.70
2023-01-01T21:26:19.124Z,4.80
2023-01-01T21:28:46.865Z,5.23
2023-01-01T21:31:15.195Z,3.27
2023-01-01T21:33:43.233Z,4.27
2023-01-01T21:36:18.323Z,4.80
2023-01-01T21:38:46.034Z,5.40
2023-01-01T21:41:14.457Z,4.40
2023-01-01T21:43:47.907Z,5.10
2023-01-01T21:46:18.460Z,4.60
2023-01-01T21:48:50.607Z,4.83
2023-01-01T21:51:24.698Z,4.93
2023-01-01T21:53:52.103Z,4.80
2023-01-01T21:56:26.916Z,4.50
2023-01-01T21:59:13.232Z,4.20
2023-01-01T22:01:42.029Z,3.53
2023-01-01T22:04:12.853Z,5.00
2023-01-01T22:06:42.426Z,4.53
2023-01-01T22:09:15.622Z,4.47
2023-01-01T22:11:42.934Z,4.77
2023-01-01T22:14:13.844Z,4.40
2023-01-01T22:16:41.018Z,4.83
2023-01-01T22:19:28.499Z,4.87
2023-01-01T22:21:55.843Z,4.40
2023-01-01T22:24:28.737Z,5.03
2023-01-01T22:26:56.960Z,4.53
2023-01-01T22:29:25.547Z,4.37
2023-01-01T22:32:03.756Z,4.27
2023-01-01T22:34:30.957Z,4.07
2023-01-01T22:36:58.093Z,4.03
2023-01-01T22:39:30.310Z,5.10
2023-01-01T22:41:57.492Z,3.97
2023-01-01T22:44:27.064Z,4.13
2023-01-01T22:46:58.599Z,4.63
2023-01-01T22:49:46.919Z,4.20
2023-01-01T22:52:14.194Z,4.60
2023-01-01T22:54:41.425Z,4.20
2023-01-01T22:57:08.750Z,4.20
2023-01-01T22:59:35.912Z,4.50
2023-01-01T23:02:03.547Z,4.03
2023-01-01T23:04:30.739Z,4.00
2023-01-01T23:06:58.108Z,5.37
2023-01-01T23:09:25.319Z,4.10
2023-01-01T23:11:53.913Z,5.10
2023-01-01T23:14:56.297Z,4.03
2023-01-01T23:17:23.582Z,4.30
2023-01-01T23:19:50.881Z,5.10
2023-01-01T23:22:19.103Z,4.50
2023-01-01T23:24:46.703Z,4.20
2023-01-01T23:27:15.032Z,4.13
2023-01-01T23:29:42.788Z,4.30
2023-01-01T23:32:09.914Z,4.47
2023-01-01T23:34:37.049Z,4.43
2023-01-01T23:37:04.193Z,4.57
2023-01-01T23:39:31.353Z,4.73
2023-01-01T23:41:58.578Z,4.53
2023-01-01T23:44:25.706Z,5.00
2023-01-01T23:46:52.976Z,4.33
2023-01-01T23:49:20.511Z,4.20
2023-01-01T23:51:47.697Z,4.77
2023-01-01T23:54:14.863Z,4.47
2023-01-01T23:56:42.031Z,4.57
2023-01-01T23:59:09.295Z,5.00
